Time;durP1;ratioP1;P1;durP2;ratioP2;P2;SDS_P1;SDS_P2;PMS_P1;PMS_P2;Temp;Humidity;BMP_temperature;BMP_pressure;BME280_temperature;BME280_humidity;BME280_pressure;Samples;Min_cycle;Max_cycle;Signal;HPM_P1;HPM_P2
2023/04/12 00:02:06;;;;;;;9.32;5.20;;;19.20;68.80;;;;;;10511018;28;20456;-28
2023/04/12 00:07:08;;;;;;;12.05;5.75;;;19.30;67.90;;;;;;10509965;28;20126;-29
2023/04/12 00:12:12;;;;;;;8.00;4.30;;;19.10;69.30;;;;;;10512303;28;20053;-30
2023/04/12 00:17:14;;;;;;;8.70;5.25;;;19.00;70.10;;;;;;10509482;28;20067;-30
2023/04/12 00:22:16;;;;;;;7.07;3.70;;;18.90;70.60;;;;;;10526543;28;20488;-30
2023/04/12 00:27:19;;;;;;;10.52;5.28;;;19.00;69.70;;;;;;10528370;28;20131;-30
2023/04/12 00:32:21;;;;;;;9.13;4.53;;;18.80;70.40;;;;;;10516292;28;20135;-30
2023/04/12 00:37:23;;;;;;;8.10;4.40;;;18.90;70.40;;;;;;10500810;28;20080;-32
2023/04/12 00:42:26;;;;;;;9.45;4.70;;;18.80;70.20;;;;;;10512210;28;20495;-30
2023/04/12 00:47:28;;;;;;;7.38;3.88;;;18.80;69.80;;;;;;10502684;28;20052;-28
2023/04/12 00:52:33;;;;;;;12.02;4.97;;;18.90;68.90;;;;;;10520787;28;20348;-30
2023/04/12 00:57:38;;;;;;;9.80;4.07;;;18.70;70.00;;;;;;10529203;28;20056;-32
2023/04/12 01:02:41;;;;;;;6.72;3.83;;;18.60;70.60;;;;;;10528360;28;20044;-29
2023/04/12 01:07:53;;;;;;;8.38;4.35;;;18.70;70.50;;;;;;10512598;28;20204;-31
2023/04/12 01:13:05;;;;;;;10.20;4.20;;;18.60;71.60;;;;;;10515453;28;20101;-31
2023/04/12 01:18:12;;;;;;;7.07;3.22;;;18.60;70.70;;;;;;10521375;28;20147;-36
2023/04/12 01:23:39;;;;;;;6.75;3.80;;;18.50;72.00;;;;;;10526059;28;20044;-34
2023/04/12 01:28:44;;;;;;;7.18;3.33;;;18.60;71.70;;;;;;10509446;28;20056;-33
2023/04/12 01:33:47;;;;;;;5.28;2.50;;;18.60;70.70;;;;;;10527180;28;20044;-30
2023/04/12 01:38:50;;;;;;;6.75;3.15;;;18.60;71.70;;;;;;10521383;28;20499;-34
2023/04/12 01:43:53;;;;;;;6.68;3.35;;;18.50;71.80;;;;;;10528580;28;20044;-31
2023/04/12 01:48:56;;;;;;;8.00;3.90;;;18.40;72.40;;;;;;10532986;28;20097;-31
2023/04/12 01:54:03;;;;;;;5.47;2.78;;;18.60;71.70;;;;;;10531997;28;20075;-31
2023/04/12 01:59:07;;;;;;;6.68;2.17;;;18.50;71.30;;;;;;10530480;28;20267;-28
2023/04/12 02:04:10;;;;;;;6.50;3.05;;;18.10;73.20;;;;;;10501411;28;20123;-29
2023/04/12 02:09:12;;;;;;;6.22;3.20;;;18.40;72.30;;;;;;10523757;28;20072;-32
2023/04/12 02:14:16;;;;;;;7.47;3.67;;;18.30;72.60;;;;;;10528387;28;20071;-30
2023/04/12 02:19:19;;;;;;;4.78;2.08;;;18.40;72.40;;;;;;10520635;28;20047;-31
2023/04/12 02:24:21;;;;;;;4.53;2.50;;;18.40;71.50;;;;;;10523579;28;20040;-31
2023/04/12 02:29:24;;;;;;;4.25;2.70;;;18.30;71.60;;;;;;10521153;28;20147;-30
2023/04/12 02:34:30;;;;;;;6.53;2.55;;;18.20;73.50;;;;;;10519550;28;20126;-30
2023/04/12 02:39:33;;;;;;;4.95;2.92;;;18.30;72.00;;;;;;10513983;28;20424;-33
2023/04/12 02:44:36;;;;;;;3.47;1.90;;;18.20;73.10;;;;;;10508500;28;20565;-30
2023/04/12 02:49:38;;;;;;;4.93;2.70;;;18.30;72.10;;;;;;10515951;28;20052;-29
2023/04/12 02:54:40;;;;;;;;;;;18.20;72.90;;;;;;10512857;28;20192;-31
2023/04/12 02:59:43;;;;;;;7.47;2.83;;;18.10;73.70;;;;;;10519411;28;19926;-28
2023/04/12 03:04:45;;;;;;;5.30;3.10;;;18.10;74.40;;;;;;10506285;28;20036;-31
2023/04/12 03:09:49;;;;;;;2.85;1.80;;;17.90;76.80;;;;;;10524792;28;20143;-31
2023/04/12 03:14:52;;;;;;;2.88;1.17;;;17.20;79.80;;;;;;10510491;28;20044;-33
2023/04/12 03:19:54;;;;;;;2.65;1.48;;;17.20;80.00;;;;;;10523522;28;20563;-30
2023/04/12 03:24:56;;;;;;;3.30;2.17;;;16.90;82.40;;;;;;10518424;28;20067;-29
2023/04/12 03:29:59;;;;;;;3.15;1.52;;;16.50;87.70;;;;;;10506773;28;20128;-26
2023/04/12 03:35:02;;;;;;;3.42;1.20;;;17.90;76.60;;;;;;10498030;28;20052;-30
2023/04/12 03:40:05;;;;;;;3.85;2.00;;;16.50;85.80;;;;;;10515928;28;20055;-28
2023/04/12 03:45:08;;;;;;;2.92;1.80;;;17.40;80.90;;;;;;10515429;28;20052;-31
2023/04/12 03:50:11;;;;;;;3.33;2.08;;;17.60;78.10;;;;;;10508588;28;20052;-30
2023/04/12 03:55:17;;;;;;;1.52;0.88;;;17.70;77.90;;;;;;10501203;28;20048;-31
2023/04/12 04:00:20;;;;;;;3.47;1.50;;;16.10;87.20;;;;;;10504033;28;20139;-31
2023/04/12 04:05:22;;;;;;;2.38;1.42;;;13.70;98.30;;;;;;10502779;28;20040;-33
2023/04/12 04:10:24;;;;;;;5.63;1.83;;;13.30;99.90;;;;;;10517485;28;20052;-30
2023/04/12 04:15:27;;;;;;;4.07;2.22;;;12.40;99.90;;;;;;10526864;28;20048;-30
2023/04/12 04:20:30;;;;;;;3.85;2.58;;;11.30;99.90;;;;;;10514932;28;20079;-38
2023/04/12 04:25:32;;;;;;;4.15;2.20;;;11.50;99.90;;;;;;10518562;28;20538;-33
2023/04/12 04:30:37;;;;;;;4.05;1.20;;;12.40;99.90;;;;;;10521671;28;20048;-30
2023/04/12 04:35:40;;;;;;;5.13;2.28;;;13.00;99.90;;;;;;10520621;28;20047;-31
2023/04/12 04:40:42;;;;;;;3.85;1.60;;;12.00;99.90;;;;;;10522367;28;20060;-30
2023/04/12 04:45:47;;;;;;;7.00;2.03;;;12.80;99.90;;;;;;10525835;28;20093;-31
2023/04/12 04:50:50;;;;;;;6.35;1.48;;;12.30;99.90;;;;;;10509797;28;20504;-30
2023/04/12 04:55:58;;;;;;;14.25;1.95;;;12.70;99.90;;;;;;10521247;28;20054;-29
2023/04/12 05:01:02;;;;;;;4.45;1.17;;;12.10;99.90;;;;;;10527464;28;20044;-29
2023/04/12 05:06:04;;;;;;;12.70;1.92;;;12.70;99.90;;;;;;10532094;28;20048;-35
2023/04/12 05:11:06;;;;;;;15.80;2.80;;;11.00;99.90;;;;;;10524463;28;20079;-30
2023/04/12 05:16:10;;;;;;;9.53;1.30;;;11.50;99.90;;;;;;10518609;28;20537;-31
2023/04/12 05:21:12;;;;;;;19.98;2.67;;;13.80;99.90;;;;;;10523196;28;20902;-28
2023/04/12 05:26:14;;;;;;;7.10;1.53;;;12.00;99.90;;;;;;10516318;28;20059;-29
2023/04/12 05:31:18;;;;;;;21.33;3.37;;;13.40;99.90;;;;;;10515766;28;20617;-29
2023/04/12 05:36:20;;;;;;;16.83;2.13;;;11.60;99.90;;;;;;10509615;28;20040;-28
2023/04/12 05:41:21;;;;;;;18.85;2.63;;;12.20;99.90;;;;;;10517933;28;20439;-31
2023/04/12 05:46:25;;;;;;;14.32;2.85;;;11.70;99.90;;;;;;10510963;28;20087;-30
2023/04/12 05:51:26;;;;;;;12.23;2.17;;;11.80;99.90;;;;;;10515723;28;20491;-30
2023/04/12 05:56:29;;;;;;;17.27;3.17;;;13.50;99.90;;;;;;10525333;28;20603;-30
2023/04/12 06:01:33;;;;;;;11.23;2.23;;;12.90;99.90;;;;;;10519651;28;20080;-31
2023/04/12 06:06:35;;;;;;;24.23;3.30;;;14.10;99.90;;;;;;10513489;28;20492;-31
2023/04/12 06:11:37;;;;;;;14.97;2.83;;;12.40;99.90;;;;;;10526289;28;20090;-31
2023/04/12 06:16:41;;;;;;;24.48;3.42;;;13.60;99.90;;;;;;10527349;28;20404;-32
2023/04/12 06:21:43;;;;;;;11.63;2.50;;;13.00;99.90;;;;;;10527682;28;20440;-30
2023/04/12 06:26:46;;;;;;;20.30;3.25;;;12.10;99.90;;;;;;10516676;28;20083;-29
2023/04/12 06:31:49;;;;;;;13.93;3.40;;;13.30;99.90;;;;;;10529408;28;20097;-29
2023/04/12 06:36:51;;;;;;;21.80;3.05;;;12.10;99.90;;;;;;10517847;28;20091;-28
2023/04/12 06:41:54;;;;;;;14.25;4.22;;;11.30;99.90;;;;;;10516424;28;20079;-28
2023/04/12 06:46:57;;;;;;;25.92;2.63;;;11.40;99.90;;;;;;10530397;28;20056;-29
2023/04/12 06:51:59;;;;;;;14.75;3.00;;;10.80;99.90;;;;;;10526367;28;20095;-29
2023/04/12 06:57:01;;;;;;;20.23;3.07;;;10.80;99.90;;;;;;10523934;28;20477;-29
2023/04/12 07:02:06;;;;;;;33.70;3.67;;;12.10;99.90;;;;;;10527247;28;20453;-27
2023/04/12 07:07:09;;;;;;;17.42;3.28;;;11.80;99.90;;;;;;10505652;28;20469;-28
2023/04/12 07:12:11;;;;;;;;;;;12.80;99.90;;;;;;10520432;28;20136;-29
2023/04/12 07:17:14;;;;;;;12.48;2.63;;;12.30;99.90;;;;;;10519725;28;20015;-29
2023/04/12 07:22:16;;;;;;;15.85;2.53;;;12.00;99.90;;;;;;10525544;28;20540;-26
2023/04/12 07:27:17;;;;;;;22.13;2.47;;;12.70;99.90;;;;;;10522038;28;20052;-29
2023/04/12 07:32:20;;;;;;;17.75;2.65;;;12.30;99.90;;;;;;10524586;28;20544;-31
2023/04/12 07:37:22;;;;;;;31.88;3.80;;;11.90;99.90;;;;;;10530167;28;20048;-28
2023/04/12 07:42:24;;;;;;;22.73;3.88;;;11.50;99.90;;;;;;10523856;28;20480;-35
2023/04/12 07:47:28;;;;;;;15.43;3.47;;;12.50;99.90;;;;;;10521449;28;20105;-31
2023/04/12 07:52:29;;;;;;;21.38;4.05;;;12.60;99.90;;;;;;10530646;28;20048;-28
2023/04/12 07:57:31;;;;;;;20.15;2.80;;;11.00;99.90;;;;;;10519440;28;20154;-32
2023/04/12 08:02:35;;;;;;;19.00;2.93;;;12.10;99.90;;;;;;10501751;28;20505;-28
2023/04/12 08:07:37;;;;;;;26.73;3.25;;;11.00;99.90;;;;;;10517274;28;20468;-28
2023/04/12 08:12:40;;;;;;;23.92;2.75;;;10.70;99.90;;;;;;10506664;28;20102;-30
2023/04/12 08:17:45;;;;;;;;;;;10.90;99.90;;;;;;10510814;28;20412;-28
2023/04/12 08:22:48;;;;;;;21.92;4.40;;;11.30;99.90;;;;;;10519879;28;20372;-31
2023/04/12 08:27:51;;;;;;;27.15;3.03;;;11.50;99.90;;;;;;10512101;28;20113;-28
2023/04/12 08:32:54;;;;;;;26.52;3.53;;;11.70;99.90;;;;;;10532097;28;20044;-28
2023/04/12 08:37:56;;;;;;;12.68;2.25;;;11.00;99.90;;;;;;10502662;28;20040;-32
2023/04/12 08:43:01;;;;;;;20.07;2.60;;;11.50;99.90;;;;;;10509704;28;20078;-30
2023/04/12 08:48:05;;;;;;;28.52;2.67;;;11.40;99.90;;;;;;10519691;28;20052;-29
2023/04/12 08:53:10;;;;;;;22.15;3.20;;;11.40;99.90;;;;;;10511210;28;20076;-31
2023/04/12 08:58:14;;;;;;;11.32;2.25;;;12.20;99.90;;;;;;10521629;28;20075;-28
2023/04/12 09:03:17;;;;;;;25.77;4.15;;;12.70;99.90;;;;;;10525061;28;20229;-29
2023/04/12 09:08:19;;;;;;;20.63;2.70;;;12.20;99.90;;;;;;10524812;28;20082;-28
2023/04/12 09:13:32;;;;;;;19.23;2.92;;;12.70;98.80;;;;;;10511517;28;20040;-33
2023/04/12 09:18:48;;;;;;;28.70;3.38;;;12.70;99.90;;;;;;10514138;28;20040;-28
2023/04/12 09:24:03;;;;;;;15.82;2.45;;;12.80;96.40;;;;;;10527433;28;20074;-35
2023/04/12 09:29:05;;;;;;;30.38;3.08;;;12.20;99.90;;;;;;10516995;28;20114;-31
2023/04/12 09:34:09;;;;;;;23.40;3.35;;;12.60;97.90;;;;;;10532070;28;20064;-28
2023/04/12 09:39:10;;;;;;;20.15;3.33;;;12.40;94.90;;;;;;10527981;28;20144;-32
2023/04/12 09:44:28;;;;;;;18.00;4.22;;;11.90;99.00;;;;;;10522985;28;20449;-29
2023/04/12 09:49:38;;;;;;;14.25;2.85;;;11.80;98.70;;;;;;10520198;28;20114;-31
2023/04/12 09:54:43;;;;;;;30.10;2.72;;;12.70;99.90;;;;;;10521873;28;20128;-29
2023/04/12 09:59:48;;;;;;;21.85;2.03;;;12.80;98.90;;;;;;10523122;28;20123;-32
2023/04/12 10:04:52;;;;;;;20.20;3.45;;;12.60;99.40;;;;;;10513348;28;20048;-29
2023/04/12 10:09:58;;;;;;;24.75;3.22;;;12.40;92.20;;;;;;10522448;28;20102;-28
2023/04/12 10:15:04;;;;;;;17.15;2.30;;;11.90;92.70;;;;;;10518575;28;20138;-28
2023/04/12 10:20:09;;;;;;;18.60;2.92;;;12.10;99.90;;;;;;10513334;28;20050;-33
2023/04/12 10:25:12;;;;;;;21.67;2.50;;;11.90;92.40;;;;;;10511102;28;20052;-36
2023/04/12 10:30:22;;;;;;;17.25;2.22;;;12.80;92.10;;;;;;10515419;28;20079;-30
2023/04/12 10:35:27;;;;;;;14.98;2.65;;;12.70;95.70;;;;;;10512093;28;20217;-28
2023/04/12 10:40:30;;;;;;;20.00;2.80;;;12.30;94.50;;;;;;10523651;28;20150;-28
2023/04/12 10:45:39;;;;;;;14.27;2.15;;;12.20;85.20;;;;;;10516672;28;20040;-31
2023/04/12 10:50:42;;;;;;;18.52;2.78;;;13.60;91.70;;;;;;10516656;28;20130;-33
2023/04/12 10:55:45;;;;;;;10.90;1.83;;;13.50;98.30;;;;;;10520687;28;20498;-29
2023/04/12 11:01:09;;;;;;;10.73;2.10;;;12.50;99.90;;;;;;10522627;28;20149;-29
2023/04/12 11:06:13;;;;;;;10.15;1.50;;;13.10;88.80;;;;;;10520375;28;20089;-30
2023/04/12 11:11:21;;;;;;;8.93;1.88;;;12.70;68.00;;;;;;10521035;28;20131;-29
2023/04/12 11:16:23;;;;;;;7.88;1.77;;;12.80;71.00;;;;;;10518120;28;20109;-34
2023/04/12 11:21:26;;;;;;;15.23;2.30;;;12.60;79.10;;;;;;10502039;28;20149;-30
2023/04/12 11:26:31;;;;;;;7.63;1.85;;;12.90;66.20;;;;;;10517021;28;20142;-30
2023/04/12 11:31:32;;;;;;;10.77;1.60;;;13.00;65.30;;;;;;10509122;28;20755;-30
2023/04/12 11:36:36;;;;;;;12.65;1.88;;;13.20;82.10;;;;;;10510897;28;20493;-29
2023/04/12 11:41:43;;;;;;;11.30;1.88;;;12.90;68.40;;;;;;10522127;28;20131;-29
2023/04/12 11:46:45;;;;;;;9.82;1.52;;;13.50;96.90;;;;;;10509979;28;20496;-29
2023/04/12 11:52:00;;;;;;;12.82;1.58;;;12.50;84.90;;;;;;10515595;28;20052;-30
2023/04/12 11:57:02;;;;;;;10.07;1.90;;;12.70;66.60;;;;;;10525938;28;20082;-31
2023/04/12 12:02:06;;;;;;;10.48;2.40;;;12.30;90.90;;;;;;10514729;28;20048;-32
2023/04/12 12:07:10;;;;;;;11.15;1.77;;;12.60;95.30;;;;;;10515256;28;20551;-33
2023/04/12 12:12:13;;;;;;;15.55;2.30;;;12.20;85.30;;;;;;10514963;28;20127;-30
2023/04/12 12:17:15;;;;;;;;;;;13.50;99.70;;;;;;10519595;28;20052;-31
2023/04/12 12:22:20;;;;;;;16.23;1.80;;;12.10;78.00;;;;;;10521296;28;19924;-29
2023/04/12 12:27:24;;;;;;;7.25;1.67;;;13.10;81.40;;;;;;10519609;28;20502;-29
2023/04/12 12:32:26;;;;;;;9.27;1.25;;;14.40;91.00;;;;;;10517692;28;20106;-29
2023/04/12 12:37:30;;;;;;;5.43;0.90;;;16.40;80.10;;;;;;10508916;28;20053;-30
2023/04/12 12:42:35;;;;;;;8.60;1.42;;;15.20;79.80;;;;;;10510373;28;20044;-33
2023/04/12 12:47:49;;;;;;;7.82;1.38;;;16.30;87.60;;;;;;10511981;28;20074;-32
2023/04/12 12:53:01;;;;;;;3.92;0.93;;;15.20;79.30;;;;;;10530844;28;20462;-30
2023/04/12 12:58:18;;;;;;;12.68;1.67;;;14.70;79.40;;;;;;10523600;28;20130;-31
2023/04/12 13:03:21;;;;;;;3.53;0.98;;;14.60;78.20;;;;;;10519478;28;20059;-31
2023/04/12 13:08:25;;;;;;;4.63;1.30;;;14.00;93.90;;;;;;10523289;28;20044;-33
2023/04/12 13:13:29;;;;;;;6.05;1.00;;;14.20;80.00;;;;;;10519817;28;20048;-29
2023/04/12 13:18:32;;;;;;;5.60;1.02;;;15.10;92.20;;;;;;10541418;28;20123;-32
2023/04/12 13:23:37;;;;;;;;;;;15.20;75.90;;;;;;10517551;28;20044;-30
2023/04/12 13:28:40;;;;;;;1.35;0.63;;;12.80;94.40;;;;;;10534004;28;19916;-34
2023/04/12 13:33:42;;;;;;;;;;;13.00;88.10;;;;;;10532937;28;20037;-31
2023/04/12 13:38:46;;;;;;;3.72;0.80;;;12.30;84.10;;;;;;10518292;28;20415;-31
2023/04/12 13:43:48;;;;;;;4.53;0.68;;;13.10;78.90;;;;;;10531698;28;20040;-30
2023/04/12 13:48:50;;;;;;;2.60;0.60;;;13.90;94.00;;;;;;10528043;28;20083;-31
2023/04/12 13:53:54;;;;;;;1.60;0.68;;;15.20;76.60;;;;;;10524242;28;20499;-32
2023/04/12 13:58:57;;;;;;;4.40;1.05;;;14.90;74.40;;;;;;10527599;28;20468;-31
2023/04/12 14:03:59;;;;;;;3.70;0.85;;;14.80;80.00;;;;;;10526509;28;20040;-29
2023/04/12 14:09:04;;;;;;;1.97;0.70;;;14.70;65.10;;;;;;10532639;28;20056;-26
2023/04/12 14:14:06;;;;;;;5.82;1.13;;;14.80;81.80;;;;;;10530234;28;20434;-29
2023/04/12 14:19:08;;;;;;;7.73;0.83;;;15.30;71.50;;;;;;10520532;28;20045;-31
2023/04/12 14:24:12;;;;;;;3.28;0.85;;;15.50;62.80;;;;;;10527565;28;20491;-29
2023/04/12 14:29:14;;;;;;;6.97;1.02;;;15.20;89.80;;;;;;10530292;28;20032;-29
2023/04/12 14:34:16;;;;;;;11.25;1.00;;;15.40;70.30;;;;;;10513886;28;20040;-29
2023/04/12 14:39:19;;;;;;;9.93;1.33;;;15.20;60.00;;;;;;10531177;28;20040;-30
2023/04/12 14:44:21;;;;;;;7.07;1.38;;;15.50;85.90;;;;;;10522713;28;20460;-30
2023/04/12 14:49:23;;;;;;;7.22;1.52;;;15.00;62.00;;;;;;10529914;28;20044;-29
2023/04/12 14:54:26;;;;;;;5.20;1.80;;;15.30;65.30;;;;;;10524098;28;20041;-28
2023/04/12 14:59:28;;;;;;;8.48;1.35;;;15.30;65.50;;;;;;10532615;28;20067;-31
2023/04/12 15:04:30;;;;;;;10.07;1.60;;;15.30;89.40;;;;;;10521848;28;20127;-29
2023/04/12 15:09:34;;;;;;;5.30;1.15;;;16.00;81.90;;;;;;10520321;28;20078;-32
2023/04/12 15:14:36;;;;;;;11.75;1.73;;;15.70;63.20;;;;;;10533041;28;20036;-29
2023/04/12 15:19:38;;;;;;;5.15;1.23;;;16.40;59.30;;;;;;10526308;28;20144;-37
2023/04/12 15:24:41;;;;;;;7.43;1.27;;;16.90;78.70;;;;;;10535891;28;20079;-30
2023/04/12 15:29:44;;;;;;;9.93;1.90;;;16.10;69.90;;;;;;10526583;28;20067;-29
2023/04/12 15:34:46;;;;;;;8.82;1.85;;;15.40;61.50;;;;;;10515998;28;20076;-29
2023/04/12 15:39:50;;;;;;;11.67;1.63;;;16.10;63.00;;;;;;10516524;28;20108;-31
2023/04/12 15:44:52;;;;;;;13.15;1.60;;;15.60;76.20;;;;;;10515474;28;20048;-31
2023/04/12 15:49:54;;;;;;;18.83;2.45;;;15.80;84.20;;;;;;10514623;28;20147;-28
2023/04/12 15:54:57;;;;;;;5.80;1.50;;;16.20;54.70;;;;;;10524013;28;20035;-32
2023/04/12 16:00:00;;;;;;;10.25;1.90;;;17.50;72.70;;;;;;10512099;28;20040;-31
2023/04/12 16:05:03;;;;;;;14.25;2.10;;;16.10;64.30;;;;;;10526109;28;20460;-29
2023/04/12 16:10:07;;;;;;;11.20;2.38;;;16.10;58.40;;;;;;10516761;28;20032;-31
2023/04/12 16:15:09;;;;;;;17.67;2.97;;;17.40;69.80;;;;;;10516128;28;20071;-37
2023/04/12 16:20:15;;;;;;;10.25;2.30;;;16.30;59.10;;;;;;10531565;28;20085;-29
2023/04/12 16:25:19;;;;;;;6.97;1.35;;;16.90;80.20;;;;;;10523367;28;20441;-29
2023/04/12 16:30:21;;;;;;;7.55;1.42;;;18.40;76.20;;;;;;10534594;28;20122;-32
2023/04/12 16:35:23;;;;;;;8.73;1.30;;;19.00;62.40;;;;;;10536316;28;20517;-36
2023/04/12 16:40:27;;;;;;;2.47;0.88;;;18.00;79.20;;;;;;10523741;28;20431;-29
2023/04/12 16:45:29;;;;;;;10.15;1.50;;;17.90;80.90;;;;;;10541544;28;20056;-28
2023/04/12 16:50:31;;;;;;;10.40;1.63;;;17.30;59.20;;;;;;10525047;28;20072;-29
2023/04/12 16:55:34;;;;;;;3.57;0.93;;;16.90;78.30;;;;;;10530833;28;20067;-33
2023/04/12 17:00:37;;;;;;;5.80;1.52;;;17.90;76.10;;;;;;10523068;28;20523;-31
2023/04/12 17:05:39;;;;;;;9.13;2.28;;;16.60;57.70;;;;;;10537441;28;20048;-30
2023/04/12 17:10:43;;;;;;;6.43;1.52;;;16.60;68.40;;;;;;10531848;28;20079;-29
2023/04/12 17:15:47;;;;;;;9.38;1.13;;;16.30;95.60;;;;;;10536766;28;20472;-29
2023/04/12 17:20:49;;;;;;;5.63;1.52;;;16.20;79.20;;;;;;10529525;28;20052;-29
2023/04/12 17:25:53;;;;;;;10.27;1.43;;;15.60;60.60;;;;;;10524599;28;20048;-30
2023/04/12 17:30:56;;;;;;;10.27;1.73;;;15.30;76.40;;;;;;10534866;28;20091;-31
2023/04/12 17:35:58;;;;;;;8.65;1.38;;;14.90;61.90;;;;;;10532239;28;20040;-26
2023/04/12 17:41:01;;;;;;;8.52;1.50;;;14.20;91.40;;;;;;10529164;28;20135;-28
2023/04/12 17:46:03;;;;;;;7.47;1.50;;;14.30;90.90;;;;;;10519962;28;20448;-31
2023/04/12 17:51:08;;;;;;;9.50;1.90;;;14.00;99.90;;;;;;10527529;28;20060;-32
2023/04/12 17:56:11;;;;;;;6.78;1.02;;;14.90;92.20;;;;;;10528237;28;20036;-30
2023/04/12 18:01:13;;;;;;;8.68;1.70;;;14.80;68.70;;;;;;10533044;28;20028;-31
2023/04/12 18:06:17;;;;;;;12.27;2.07;;;15.10;78.40;;;;;;10525892;28;20439;-34
2023/04/12 18:11:20;;;;;;;9.02;1.77;;;14.90;99.90;;;;;;10527877;28;20036;-34
2023/04/12 18:16:22;;;;;;;9.23;1.52;;;14.80;61.70;;;;;;10524728;28;20097;-34
2023/04/12 18:21:24;;;;;;;4.93;1.13;;;15.20;98.70;;;;;;10520924;28;20134;-36
2023/04/12 18:26:28;;;;;;;;;;;16.90;94.40;;;;;;10517580;28;20366;-36
2023/04/12 18:31:30;;;;;;;3.42;1.42;;;18.70;62.60;;;;;;10530938;28;19928;-37
2023/04/12 18:36:32;;;;;;;4.95;1.20;;;17.40;87.30;;;;;;10527921;28;20100;-32
2023/04/12 18:41:35;;;;;;;6.60;1.30;;;19.30;75.40;;;;;;10519990;28;20084;-27
2023/04/12 18:46:37;;;;;;;2.42;1.00;;;19.00;58.90;;;;;;10518178;28;20380;-34
2023/04/12 18:51:41;;;;;;;10.27;1.70;;;17.90;81.50;;;;;;10516850;28;20071;-33
2023/04/12 18:56:44;;;;;;;6.50;1.00;;;17.70;64.20;;;;;;10532560;28;20047;-33
2023/04/12 19:01:46;;;;;;;11.85;0.52;;;18.70;60.60;;;;;;10507508;28;20072;-34
2023/04/12 19:06:48;;;;;;;3.42;0.80;;;19.00;79.40;;;;;;10527897;28;20432;-29
2023/04/12 19:11:54;;;;;;;3.10;0.80;;;19.50;60.50;;;;;;10529005;28;20134;-29
2023/04/12 19:16:56;;;;;;;6.53;1.20;;;18.00;81.60;;;;;;10521807;28;20040;-31
2023/04/12 19:21:57;;;;;;;8.07;1.00;;;19.30;53.90;;;;;;10514874;28;20082;-29
2023/04/12 19:27:01;;;;;;;4.07;0.85;;;20.10;66.00;;;;;;10513048;28;20169;-30
2023/04/12 19:32:05;;;;;;;3.78;0.90;;;20.00;65.80;;;;;;10521170;28;20123;-34
2023/04/12 19:37:07;;;;;;;2.25;0.60;;;20.00;64.00;;;;;;10526919;28;20526;-31
2023/04/12 19:42:10;;;;;;;5.63;1.67;;;20.50;63.40;;;;;;10520704;28;20044;-30
2023/04/12 19:47:12;;;;;;;4.40;0.77;;;20.30;63.50;;;;;;10525976;28;20061;-30
2023/04/12 19:52:14;;;;;;;7.63;1.48;;;20.90;61.70;;;;;;10515820;28;20098;-29
2023/04/12 19:57:18;;;;;;;4.45;1.15;;;20.70;62.50;;;;;;10502075;28;20033;-29
2023/04/12 20:02:20;;;;;;;2.47;0.85;;;20.70;62.80;;;;;;10513937;28;20055;-34
2023/04/12 20:07:22;;;;;;;11.52;1.45;;;20.60;62.90;;;;;;10522391;28;20081;-29
2023/04/12 20:12:25;;;;;;;;;;;20.40;63.30;;;;;;10505577;28;20106;-28
2023/04/12 20:18:05;;;;;;;4.40;1.23;;;20.40;62.70;;;;;;10520358;28;20344;-31
2023/04/12 20:23:07;;;;;;;5.32;1.50;;;20.30;63.20;;;;;;10515989;28;20042;-35
2023/04/12 20:28:11;;;;;;;4.32;1.10;;;20.30;62.90;;;;;;10507849;28;20040;-36
2023/04/12 20:33:13;;;;;;;2.97;1.13;;;20.40;62.00;;;;;;10512858;28;20045;-28
2023/04/12 20:38:15;;;;;;;6.13;1.45;;;20.30;62.80;;;;;;10504803;28;20040;-28
2023/04/12 20:43:19;;;;;;;3.75;0.68;;;20.40;61.10;;;;;;10507703;28;20736;-35
2023/04/12 20:48:20;;;;;;;3.15;1.10;;;20.00;63.20;;;;;;10518598;28;20048;-29
2023/04/12 20:53:22;;;;;;;3.45;1.13;;;20.00;63.10;;;;;;10517467;28;20171;-29
2023/04/12 20:58:33;;;;;;;2.47;1.00;;;20.10;63.50;;;;;;10518533;28;20059;-31
2023/04/12 21:03:36;;;;;;;5.03;1.42;;;19.90;62.10;;;;;;10520381;28;20071;-34
2023/04/12 21:08:38;;;;;;;3.92;1.02;;;19.80;63.70;;;;;;10516291;28;20036;-32
2023/04/12 21:13:43;;;;;;;3.35;0.85;;;20.00;62.80;;;;;;10516258;28;20118;-29
2023/04/12 21:18:45;;;;;;;1.75;0.73;;;19.60;61.40;;;;;;10515500;28;20048;-32
2023/04/12 21:23:47;;;;;;;3.72;0.75;;;19.60;63.50;;;;;;10526910;28;20559;-32
2023/04/12 21:28:50;;;;;;;3.35;1.20;;;15.90;84.30;;;;;;10529998;28;20491;-31
2023/04/12 21:33:54;;;;;;;3.97;1.95;;;16.80;86.40;;;;;;10528745;28;20032;-35
2023/04/12 21:38:57;;;;;;;4.55;1.02;;;16.00;92.40;;;;;;10527536;28;20368;-34
2023/04/12 21:44:01;;;;;;;8.07;1.23;;;18.00;73.50;;;;;;10523376;28;20048;-35
2023/04/12 21:49:03;;;;;;;2.15;0.90;;;18.90;70.10;;;;;;10526203;28;20068;-34
2023/04/12 21:54:07;;;;;;;2.83;0.55;;;19.10;66.90;;;;;;10523739;28;20048;-33
2023/04/12 21:59:10;;;;;;;1.02;0.73;;;19.00;67.00;;;;;;10523061;28;20114;-36
2023/04/12 22:04:12;;;;;;;1.77;0.65;;;19.50;65.60;;;;;;10515977;28;20131;-30
2023/04/12 22:09:14;;;;;;;;;;;19.40;65.60;;;;;;10522617;28;20040;-30
2023/04/12 22:14:18;;;;;;;2.50;1.30;;;18.20;71.80;;;;;;10515788;28;19920;-33
2023/04/12 22:19:20;;;;;;;1.65;0.75;;;18.60;71.40;;;;;;10515319;28;20384;-33
2023/04/12 22:24:24;;;;;;;2.70;1.25;;;17.60;71.50;;;;;;10527168;28;20048;-35
2023/04/12 22:29:29;;;;;;;2.72;0.70;;;16.60;83.90;;;;;;10530933;28;20094;-31
2023/04/12 22:34:31;;;;;;;2.25;1.00;;;14.00;87.30;;;;;;10528333;28;20055;-33
2023/04/12 22:39:33;;;;;;;5.97;0.83;;;16.00;85.00;;;;;;10523532;28;20044;-31
2023/04/12 22:44:37;;;;;;;9.50;1.17;;;14.60;91.00;;;;;;10520252;28;20468;-30
2023/04/12 22:49:49;;;;;;;2.42;0.47;;;15.50;91.90;;;;;;10530386;28;20238;-31
2023/04/12 22:54:50;;;;;;;2.15;0.88;;;13.90;95.90;;;;;;10533944;28;20040;-30
2023/04/12 22:59:54;;;;;;;2.83;0.90;;;15.20;91.90;;;;;;10530430;28;20036;-29
2023/04/12 23:04:56;;;;;;;2.83;0.75;;;14.10;88.70;;;;;;10534375;28;20039;-29
2023/04/12 23:09:58;;;;;;;0.93;0.70;;;13.80;94.10;;;;;;10523089;28;20040;-36
2023/04/12 23:15:01;;;;;;;1.27;0.70;;;13.10;99.90;;;;;;10531933;28;20093;-31
2023/04/12 23:20:08;;;;;;;3.75;1.23;;;15.50;87.40;;;;;;10532863;28;20051;-32
2023/04/12 23:25:11;;;;;;;0.43;0.40;;;15.60;91.60;;;;;;10531776;28;20109;-30
2023/04/12 23:30:15;;;;;;;2.92;1.10;;;15.30;87.00;;;;;;10525695;28;20032;-30
2023/04/12 23:35:17;;;;;;;1.23;0.60;;;15.00;91.80;;;;;;10524517;28;20070;-36
2023/04/12 23:40:19;;;;;;;0.70;0.40;;;12.40;99.90;;;;;;10521464;28;20136;-35
2023/04/12 23:45:22;;;;;;;1.30;0.90;;;12.90;97.60;;;;;;10500493;28;20048;-29
2023/04/12 23:50:24;;;;;;;1.77;0.98;;;15.70;86.90;;;;;;10526963;28;20071;-31
2023/04/12 23:55:26;;;;;;;2.33;1.00;;;14.60;96.30;;;;;;10518812;28;20083;-33
